Terminal Aerodrome Forecast
Issued by NWS

Home | Current Version | Previous Version | Graphics & Text | Print | Product List | Glossary On
Versions: 1 2 3 4 5 6 7 8 9 10 11 12 13 14 15 16
000
FTUS43 KBIS 291600 AAC
TAFJMS
TAF AMD
KJMS 291601Z 2916/3012 06009KT P6SM OVC005
     FM291700 07011KT P6SM BKN006 OVC015
     FM292100 11011KT P6SM SCT008 BKN015 OVC035=

USA.gov is the U.S. government's official web portal to all federal, state and local government web resources and services.